FVOT weather

Kotwa Airport
Mashonaland East Province, Zimbabwe

Public forecast

Using degrees Celsius for public forecast. Weather courtesy of forecast.io.

Closest aviation weather report (METAR) to Kotwa Airport

Closest report is Chingozi Airport, 76.8 nm (142.2 km) NE. Retrieved 2020/01/23 04:00 UTC (31 minutes ago):

FQTT 230400Z 00000KT 9999 SCT020 20/20 Q1012

Closest aviation forecast (TAF) to Kotwa Airport

Forecast is more than 6 hours old.

Closest forecast is Chingozi Airport, 76.8 nm (142.2 km) NE. Retrieved 2020/01/22 18:00 UTC (11 hours ago):

TAF FQTT 221600Z 2218/2318 06007KT 9999 BKN020 TX32/2313Z TN24/2303Z BECMG 2306/2308 34010KT BECMG 2312/2314 12010KT